createdAt,value
2023-03-14T00:00:48.542Z,57.73
2023-03-14T00:04:50.316Z,57.69
2023-03-14T00:08:52.907Z,57.79
2023-03-14T00:12:54.703Z,57.36
2023-03-14T00:16:56.458Z,57.68
2023-03-14T00:21:02.710Z,57.76
2023-03-14T00:25:06.394Z,58.00
2023-03-14T00:29:08.138Z,57.79
2023-03-14T00:33:09.901Z,57.55
2023-03-14T00:37:11.845Z,57.50
2023-03-14T00:41:19.646Z,57.59
2023-03-14T00:45:22.567Z,57.80
2023-03-14T00:49:24.709Z,57.69
2023-03-14T00:53:26.848Z,58.00
2023-03-14T00:57:28.580Z,57.61
2023-03-14T01:01:30.307Z,57.73
2023-03-14T01:05:32.393Z,57.68
2023-03-14T01:09:34.108Z,57.52
2023-03-14T01:13:36.649Z,58.06
2023-03-14T01:17:41.817Z,57.92
2023-03-14T01:21:43.789Z,57.86
2023-03-14T01:25:45.570Z,57.89
2023-03-14T01:29:48.387Z,58.04
2023-03-14T01:33:51.384Z,57.79
2023-03-14T01:37:53.295Z,57.59
2023-03-14T01:41:57.690Z,57.61
2023-03-14T01:45:59.574Z,57.65
2023-03-14T01:50:11.495Z,57.85
2023-03-14T01:54:14.190Z,58.09
2023-03-14T01:58:18.047Z,58.00
2023-03-14T02:02:20.404Z,57.77
2023-03-14T02:06:27.441Z,57.81
2023-03-14T02:10:36.609Z,57.82
2023-03-14T02:14:39.274Z,57.88
2023-03-14T02:18:52.813Z,57.71
2023-03-14T02:23:44.644Z,58.03
2023-03-14T02:27:48.655Z,57.90
2023-03-14T02:31:50.455Z,58.29
2023-03-14T02:36:05.532Z,57.90
2023-03-14T02:40:08.787Z,58.22
2023-03-14T02:44:11.048Z,58.29
2023-03-14T02:48:25.263Z,58.10
2023-03-14T02:52:27.109Z,58.28
2023-03-14T02:56:28.842Z,58.15
2023-03-14T03:00:31.863Z,58.40
2023-03-14T03:04:33.855Z,58.14
2023-03-14T03:08:35.758Z,58.38
2023-03-14T03:12:37.539Z,58.32
2023-03-14T03:16:40.411Z,58.26
2023-03-14T03:20:42.277Z,58.51
2023-03-14T03:24:45.548Z,58.30
2023-03-14T03:28:47.332Z,58.19
2023-03-14T03:32:51.382Z,58.08
2023-03-14T03:36:53.141Z,58.17
2023-03-14T03:40:54.827Z,58.35
2023-03-14T03:45:01.222Z,58.08
2023-03-14T03:49:04.660Z,58.00
2023-03-14T03:53:06.508Z,58.14
2023-03-14T03:57:08.268Z,57.79
2023-03-14T04:01:11.805Z,57.78
2023-03-14T04:05:14.518Z,57.76
2023-03-14T04:09:23.015Z,57.51
2023-03-14T04:13:41.065Z,57.71
2023-03-14T04:17:42.888Z,57.68
2023-03-14T04:21:46.329Z,57.69
2023-03-14T04:25:50.221Z,57.31
2023-03-14T04:29:53.292Z,57.50
2023-03-14T04:34:04.125Z,57.18
2023-03-14T04:38:14.508Z,57.14
2023-03-14T04:42:19.674Z,57.42
2023-03-14T04:46:22.253Z,57.61
2023-03-14T04:50:24.172Z,57.36
2023-03-14T04:54:26.321Z,57.14
2023-03-14T04:58:31.978Z,57.31
2023-03-14T05:02:36.026Z,57.44
2023-03-14T05:06:58.061Z,57.00
2023-03-14T05:11:20.025Z,56.89
2023-03-14T05:15:33.233Z,57.12
2023-03-14T05:20:11.237Z,57.38
2023-03-14T05:24:44.982Z,56.87
2023-03-14T05:29:09.849Z,57.12
2023-03-14T05:33:32.542Z,57.05
2023-03-14T05:37:50.000Z,56.80
2023-03-14T05:42:17.385Z,57.04
2023-03-14T05:46:45.295Z,57.31
2023-03-14T05:51:05.966Z,56.99
2023-03-14T05:55:26.561Z,56.99
2023-03-14T05:59:46.772Z,56.65
2023-03-14T06:04:20.639Z,56.82
2023-03-14T06:08:27.219Z,56.88
2023-03-14T06:12:29.636Z,57.13
2023-03-14T06:16:33.263Z,56.82
2023-03-14T06:20:42.548Z,57.24
2023-03-14T06:24:47.652Z,56.77
2023-03-14T06:28:52.070Z,56.70
2023-03-14T06:32:56.632Z,56.77
2023-03-14T06:36:58.762Z,56.66
2023-03-14T06:41:06.114Z,56.67
2023-03-14T06:45:14.776Z,56.42
2023-03-14T06:49:17.027Z,56.98
2023-03-14T06:53:19.239Z,56.48
2023-03-14T06:57:21.672Z,56.54
2023-03-14T07:01:29.152Z,56.55
2023-03-14T07:05:40.009Z,56.69
2023-03-14T07:09:41.776Z,56.41
2023-03-14T07:13:43.530Z,56.24
2023-03-14T07:17:46.540Z,56.49
2023-03-14T07:21:48.516Z,56.20
2023-03-14T07:25:55.126Z,56.25
2023-03-14T07:29:59.895Z,56.36
2023-03-14T07:34:02.566Z,56.45
2023-03-14T07:38:07.915Z,56.43
2023-03-14T07:42:14.214Z,56.28
2023-03-14T07:46:31.015Z,56.50
2023-03-14T07:50:32.754Z,56.51
2023-03-14T07:54:34.456Z,56.46
2023-03-14T07:58:36.167Z,56.26
2023-03-14T08:02:37.907Z,56.34
2023-03-14T08:06:39.718Z,56.15
2023-03-14T08:10:41.601Z,56.06
2023-03-14T08:14:43.321Z,56.06
2023-03-14T08:18:45.611Z,55.81
2023-03-14T08:22:47.763Z,55.80
2023-03-14T08:26:49.556Z,55.71
2023-03-14T08:30:51.323Z,55.70
2023-03-14T08:34:53.056Z,55.95
2023-03-14T08:38:55.301Z,55.96
2023-03-14T08:42:57.008Z,56.00
2023-03-14T08:46:58.867Z,55.82
2023-03-14T08:51:14.980Z,55.50
2023-03-14T08:55:16.765Z,55.76
2023-03-14T08:59:19.360Z,55.97
2023-03-14T09:03:21.187Z,55.46
2023-03-14T09:07:22.895Z,55.93
2023-03-14T09:11:24.715Z,55.41
2023-03-14T09:15:26.476Z,55.90
2023-03-14T09:19:28.166Z,55.53
2023-03-14T09:23:29.909Z,55.27
2023-03-14T09:27:31.660Z,55.55
2023-03-14T09:31:33.493Z,55.70
2023-03-14T09:35:35.755Z,55.44
2023-03-14T09:39:37.602Z,55.33
2023-03-14T09:43:41.299Z,55.43
2023-03-14T09:47:56.368Z,55.29
2023-03-14T09:52:04.429Z,55.11
2023-03-14T09:56:32.770Z,55.21
2023-03-14T10:00:34.439Z,55.33
2023-03-14T10:04:37.089Z,55.32
2023-03-14T10:08:46.261Z,55.29
2023-03-14T10:12:56.724Z,54.94
2023-03-14T10:17:11.114Z,54.86
2023-03-14T10:21:31.313Z,54.79
2023-03-14T10:25:38.082Z,55.05
2023-03-14T10:29:53.994Z,54.73
2023-03-14T10:34:05.514Z,54.86
2023-03-14T10:38:15.468Z,55.07
2023-03-14T10:42:25.463Z,55.11
2023-03-14T10:46:31.299Z,55.33
2023-03-14T10:51:04.393Z,55.29
2023-03-14T10:55:12.852Z,55.55
2023-03-14T10:59:16.616Z,55.38
2023-03-14T11:03:21.666Z,55.46
2023-03-14T11:07:44.010Z,55.86
2023-03-14T11:11:48.859Z,55.93
2023-03-14T11:16:10.103Z,56.15
2023-03-14T11:20:33.679Z,56.10
2023-03-14T11:24:53.371Z,56.04
2023-03-14T11:28:59.923Z,55.88
2023-03-14T11:33:13.578Z,56.22
2023-03-14T11:37:29.749Z,55.91
2023-03-14T11:41:37.052Z,56.21
2023-03-14T11:45:42.106Z,56.17
2023-03-14T11:50:05.978Z,56.05
2023-03-14T11:54:26.774Z,55.73
2023-03-14T11:58:35.979Z,55.67
2023-03-14T12:02:47.345Z,55.54
2023-03-14T12:06:52.015Z,55.45
2023-03-14T12:10:57.973Z,55.39
2023-03-14T12:15:02.443Z,55.04
2023-03-14T12:19:27.968Z,55.09
2023-03-14T12:23:56.263Z,55.04
2023-03-14T12:27:57.886Z,54.97
2023-03-14T12:32:02.680Z,54.57
2023-03-14T12:36:05.919Z,54.91
2023-03-14T12:40:18.887Z,54.73
2023-03-14T12:44:29.905Z,54.67
2023-03-14T12:48:33.237Z,54.97
2023-03-14T12:53:01.600Z,54.66
2023-03-14T12:57:14.207Z,54.89
2023-03-14T13:01:20.000Z,54.59
2023-03-14T13:05:26.252Z,54.90
2023-03-14T13:09:34.181Z,54.56
2023-03-14T13:13:38.624Z,54.50
2023-03-14T13:17:42.377Z,54.21
2023-03-14T13:21:44.666Z,54.73
2023-03-14T13:25:47.311Z,54.39
2023-03-14T13:29:52.688Z,54.49
2023-03-14T13:34:02.926Z,54.29
2023-03-14T13:38:11.546Z,54.00
2023-03-14T13:42:16.411Z,52.47
2023-03-14T13:46:23.282Z,51.66
2023-03-14T13:50:25.250Z,51.12
2023-03-14T13:54:28.649Z,50.87
2023-03-14T13:58:32.485Z,50.07
2023-03-14T14:02:37.388Z,49.93
2023-03-14T14:06:49.389Z,49.66
2023-03-14T14:10:59.340Z,49.41
2023-03-14T14:15:21.662Z,49.34
2023-03-14T14:19:25.558Z,49.83
2023-03-14T14:23:30.059Z,50.38
2023-03-14T14:27:40.474Z,50.73
2023-03-14T14:31:45.327Z,50.99
2023-03-14T14:35:54.476Z,51.84
2023-03-14T14:40:02.008Z,52.03
2023-03-14T14:44:05.099Z,51.74
2023-03-14T14:48:11.197Z,52.09
2023-03-14T14:52:18.897Z,51.86
2023-03-14T14:56:27.137Z,52.32
2023-03-14T15:00:28.966Z,51.84
2023-03-14T15:04:33.799Z,51.86
2023-03-14T15:08:35.537Z,52.33
2023-03-14T15:12:37.286Z,51.30
2023-03-14T15:16:39.931Z,50.61
2023-03-14T15:20:41.841Z,49.43
2023-03-14T15:24:43.739Z,49.07
2023-03-14T15:28:47.310Z,48.93
2023-03-14T15:32:49.057Z,48.36
2023-03-14T15:36:50.834Z,47.85
2023-03-14T15:40:53.807Z,47.90
2023-03-14T15:44:55.508Z,47.53
2023-03-14T15:48:57.320Z,47.31
2023-03-14T15:52:59.195Z,47.03
2023-03-14T15:57:01.059Z,47.61
2023-03-14T16:01:03.657Z,46.79
2023-03-14T16:05:05.803Z,46.84
2023-03-14T16:09:08.265Z,46.83
2023-03-14T16:13:09.953Z,46.73
2023-03-14T16:17:11.975Z,46.77
2023-03-14T16:21:19.260Z,46.75
2023-03-14T16:25:21.082Z,46.71
2023-03-14T16:29:23.039Z,46.53
2023-03-14T16:33:24.817Z,46.29
2023-03-14T16:37:27.569Z,46.17
2023-03-14T16:41:31.583Z,46.04
2023-03-14T16:45:33.931Z,46.77
2023-03-14T16:49:35.804Z,46.94
2023-03-14T16:53:37.673Z,47.98
2023-03-14T16:57:39.444Z,48.16
2023-03-14T17:01:43.077Z,48.58
2023-03-14T17:05:46.955Z,48.54
2023-03-14T17:09:48.788Z,49.06
2023-03-14T17:13:50.696Z,48.97
2023-03-14T17:17:52.411Z,48.90
2023-03-14T17:22:01.743Z,49.21
2023-03-14T17:26:13.008Z,49.25
2023-03-14T17:30:14.983Z,49.27
2023-03-14T17:34:16.686Z,49.50
2023-03-14T17:38:18.431Z,49.07
2023-03-14T17:42:20.200Z,49.55
2023-03-14T17:46:22.015Z,49.03
2023-03-14T17:50:23.756Z,49.00
2023-03-14T17:54:25.501Z,49.32
2023-03-14T17:58:28.155Z,49.14
2023-03-14T18:02:30.012Z,48.93
2023-03-14T18:06:32.204Z,49.09
2023-03-14T18:10:33.981Z,48.75
2023-03-14T18:14:37.104Z,49.08
2023-03-14T18:18:38.852Z,49.25
2023-03-14T18:22:42.194Z,48.70
2023-03-14T18:26:44.183Z,49.08
2023-03-14T18:30:52.233Z,49.00
2023-03-14T18:34:53.857Z,49.02
2023-03-14T18:38:56.905Z,49.03
2023-03-14T18:42:58.745Z,48.68
2023-03-14T18:47:00.590Z,48.70
2023-03-14T18:51:02.420Z,48.95
2023-03-14T18:55:04.347Z,48.91
2023-03-14T18:59:06.651Z,48.93
2023-03-14T19:03:08.363Z,48.86
2023-03-14T19:07:10.180Z,49.13
2023-03-14T19:11:14.287Z,48.74
2023-03-14T19:15:16.120Z,49.17
2023-03-14T19:19:17.830Z,49.34
2023-03-14T19:23:19.646Z,49.21
2023-03-14T19:27:21.524Z,48.92
2023-03-14T19:31:23.359Z,49.05
2023-03-14T19:35:25.242Z,49.00
2023-03-14T19:39:27.018Z,48.85
2023-03-14T19:43:28.795Z,49.11
2023-03-14T19:47:31.361Z,49.16
2023-03-14T19:51:35.286Z,49.12
2023-03-14T19:55:37.722Z,49.13
2023-03-14T19:59:39.509Z,49.08
2023-03-14T20:03:41.333Z,49.04
2023-03-14T20:07:44.581Z,49.01
2023-03-14T20:11:46.438Z,49.19
2023-03-14T20:15:48.306Z,48.87
2023-03-14T20:19:50.110Z,49.15
2023-03-14T20:23:51.794Z,48.83
2023-03-14T20:27:53.555Z,49.36
2023-03-14T20:31:55.284Z,48.80
2023-03-14T20:35:59.779Z,49.14
2023-03-14T20:40:01.702Z,49.23
2023-03-14T20:44:03.423Z,49.12
2023-03-14T20:48:05.355Z,49.12
2023-03-14T20:52:07.190Z,48.84
2023-03-14T20:56:09.174Z,49.07
2023-03-14T21:00:11.545Z,49.12
2023-03-14T21:04:14.204Z,48.75
2023-03-14T21:08:18.973Z,49.00
2023-03-14T21:12:20.664Z,48.69
2023-03-14T21:16:22.419Z,49.06
2023-03-14T21:20:26.936Z,48.82
2023-03-14T21:24:29.355Z,48.87
2023-03-14T21:28:31.229Z,48.86
2023-03-14T21:32:33.134Z,49.08
2023-03-14T21:36:35.014Z,48.94
2023-03-14T21:40:37.593Z,48.96
2023-03-14T21:44:39.811Z,49.12
2023-03-14T21:48:41.506Z,48.57
2023-03-14T21:52:46.386Z,48.71
2023-03-14T21:56:48.205Z,48.86
2023-03-14T22:00:50.120Z,48.35
2023-03-14T22:04:51.871Z,47.18
2023-03-14T22:08:55.454Z,46.66
2023-03-14T22:12:57.870Z,45.93
2023-03-14T22:17:04.167Z,45.89
2023-03-14T22:21:06.088Z,46.22
2023-03-14T22:25:08.267Z,46.79
2023-03-14T22:29:10.182Z,47.07
2023-03-14T22:33:11.816Z,47.39
2023-03-14T22:37:14.445Z,47.75
2023-03-14T22:41:16.330Z,48.44
2023-03-14T22:45:18.060Z,48.59
2023-03-14T22:49:19.888Z,48.40
2023-03-14T22:53:21.559Z,48.85
2023-03-14T22:57:23.288Z,48.76
2023-03-14T23:01:26.454Z,48.99
2023-03-14T23:05:28.299Z,48.82
2023-03-14T23:09:30.110Z,48.90
2023-03-14T23:13:32.177Z,48.95
2023-03-14T23:17:34.622Z,49.59
2023-03-14T23:21:36.747Z,49.34
2023-03-14T23:25:52.150Z,49.21
2023-03-14T23:29:54.888Z,49.62
2023-03-14T23:33:56.754Z,49.33
2023-03-14T23:37:58.434Z,49.30
2023-03-14T23:42:00.440Z,49.54
2023-03-14T23:46:02.552Z,49.59
2023-03-14T23:50:04.559Z,49.81
2023-03-14T23:54:06.310Z,49.88
2023-03-14T23:58:08.036Z,49.62
